Time;durP1;ratioP1;P1;durP2;ratioP2;P2;SDS_P1;SDS_P2;PMS_P1;PMS_P2;Temp;Humidity;BMP_temperature;BMP_pressure;BME280_temperature;BME280_humidity;BME280_pressure;Samples;Min_cycle;Max_cycle;Signal;HPM_P1;HPM_P2
2022/07/25 00:02:16;;;;;;;0.00;0.00;;;23.50;71.10;;;;;;5049729;28;20448;-67
2022/07/25 00:04:41;;;;;;;0.00;0.00;;;23.50;71.40;;;;;;5049336;28;20086;-67
2022/07/25 00:07:07;;;;;;;0.00;0.00;;;23.40;71.50;;;;;;5049118;28;20123;-67
2022/07/25 00:09:33;;;;;;;0.00;0.00;;;23.30;72.40;;;;;;5049397;28;20512;-67
2022/07/25 00:11:59;;;;;;;0.00;0.00;;;23.30;72.40;;;;;;5049307;28;20462;-66
2022/07/25 00:14:25;;;;;;;0.00;0.00;;;23.20;73.00;;;;;;5031262;28;20071;-67
2022/07/25 00:16:50;;;;;;;0.00;0.00;;;23.20;72.90;;;;;;5049564;28;20099;-67
2022/07/25 00:19:16;;;;;;;0.00;0.00;;;23.20;73.20;;;;;;5049389;28;20040;-67
2022/07/25 00:21:42;;;;;;;0.00;0.00;;;23.10;72.50;;;;;;5031653;28;20033;-67
2022/07/25 00:24:08;;;;;;;0.00;0.00;;;23.10;73.70;;;;;;5045905;28;20047;-67
2022/07/25 00:26:33;;;;;;;0.00;0.00;;;23.00;73.30;;;;;;5048980;28;20060;-67
2022/07/25 00:28:59;;;;;;;0.00;0.00;;;23.00;74.20;;;;;;5031063;28;20067;-67
2022/07/25 00:31:25;;;;;;;0.00;0.00;;;22.90;74.30;;;;;;5049725;28;20551;-67
2022/07/25 00:33:50;;;;;;;0.00;0.00;;;22.90;74.10;;;;;;5049295;28;20104;-67
2022/07/25 00:36:16;;;;;;;0.00;0.00;;;22.80;73.90;;;;;;5048816;28;20041;-67
2022/07/25 00:38:41;;;;;;;0.00;0.00;;;22.80;73.50;;;;;;5048706;28;20049;-67
2022/07/25 00:41:07;;;;;;;0.00;0.00;;;22.80;73.50;;;;;;5048969;28;20049;-67
2022/07/25 00:43:33;;;;;;;0.00;0.00;;;22.80;73.30;;;;;;5048844;28;20044;-67
2022/07/25 00:45:59;;;;;;;0.00;0.00;;;22.80;73.40;;;;;;5048593;28;20040;-67
2022/07/25 00:48:25;;;;;;;0.00;0.00;;;22.90;73.40;;;;;;5048395;28;20037;-67
2022/07/25 00:50:51;;;;;;;0.00;0.00;;;22.80;73.40;;;;;;5049772;28;20041;-66
2022/07/25 00:53:17;;;;;;;0.00;0.00;;;22.90;73.40;;;;;;5048679;28;20146;-67
2022/07/25 00:55:43;;;;;;;0.00;0.00;;;22.90;73.10;;;;;;5048880;28;20076;-67
2022/07/25 00:58:09;;;;;;;0.00;0.00;;;22.90;73.50;;;;;;5049120;28;20052;-67
2022/07/25 01:00:34;;;;;;;0.00;0.00;;;22.80;73.20;;;;;;5048413;28;20831;-67
2022/07/25 01:03:00;;;;;;;0.00;0.00;;;22.80;73.60;;;;;;5048482;28;20110;-67
2022/07/25 01:05:26;;;;;;;0.00;0.00;;;22.80;74.00;;;;;;5048733;28;20117;-67
2022/07/25 01:07:51;;;;;;;0.00;0.00;;;22.80;74.00;;;;;;5030786;28;20036;-67
2022/07/25 01:10:17;;;;;;;0.00;0.00;;;22.70;73.60;;;;;;5048582;28;20045;-67
2022/07/25 01:12:47;;;;;;;0.00;0.00;;;22.80;73.40;;;;;;5048920;28;20528;-67
2022/07/25 01:15:14;;;;;;;0.00;0.00;;;22.80;73.70;;;;;;5047981;28;20589;-67
2022/07/25 01:17:40;;;;;;;0.00;0.00;;;22.70;73.90;;;;;;5048293;28;20452;-67
2022/07/25 01:20:12;;;;;;;0.00;0.00;;;22.60;73.90;;;;;;5045535;28;20041;-67
2022/07/25 01:22:38;;;;;;;0.00;0.00;;;22.60;74.20;;;;;;5049891;28;20072;-67
2022/07/25 01:25:04;;;;;;;0.00;0.00;;;22.60;75.00;;;;;;5033281;28;20130;-67
2022/07/25 01:27:30;;;;;;;0.00;0.00;;;22.50;75.20;;;;;;5034268;28;20053;-67
2022/07/25 01:29:56;;;;;;;0.00;0.00;;;22.50;74.90;;;;;;5052351;28;20084;-67
2022/07/25 01:32:21;;;;;;;0.00;0.00;;;22.40;75.10;;;;;;5052723;28;20068;-67
2022/07/25 01:34:47;;;;;;;0.00;0.00;;;22.30;75.30;;;;;;5052047;28;20037;-67
2022/07/25 01:37:12;;;;;;;0.00;0.00;;;22.40;75.20;;;;;;5050825;28;20459;-67
2022/07/25 01:39:38;;;;;;;0.00;0.00;;;22.30;75.20;;;;;;5047481;28;20045;-67
2022/07/25 01:42:04;;;;;;;0.00;0.00;;;22.30;75.40;;;;;;5052505;28;20489;-66
2022/07/25 01:44:29;;;;;;;0.00;0.00;;;22.20;75.20;;;;;;5052568;28;20037;-67
2022/07/25 01:46:55;;;;;;;0.00;0.00;;;22.30;75.60;;;;;;5034445;28;20133;-67
2022/07/25 01:49:20;;;;;;;0.55;0.55;;;22.20;76.20;;;;;;5050927;28;20048;-67
2022/07/25 01:51:46;;;;;;;0.00;0.00;;;22.20;76.10;;;;;;5049995;28;20079;-67
2022/07/25 01:54:12;;;;;;;0.00;0.00;;;22.10;75.70;;;;;;5051567;28;20041;-66
2022/07/25 01:56:43;;;;;;;0.00;0.00;;;22.10;75.90;;;;;;5052158;28;20049;-67
2022/07/25 01:59:08;;;;;;;0.00;0.00;;;22.00;75.80;;;;;;5052421;28;20044;-67
2022/07/25 02:01:35;;;;;;;0.00;0.00;;;22.00;75.80;;;;;;5051407;28;20045;-67
2022/07/25 02:04:01;;;;;;;0.00;0.00;;;22.00;75.50;;;;;;5052276;28;20151;-67
2022/07/25 02:06:27;;;;;;;0.00;0.00;;;22.00;75.90;;;;;;5051310;28;20124;-67
2022/07/25 02:08:52;;;;;;;0.00;0.00;;;22.00;75.50;;;;;;5051963;28;20133;-67
2022/07/25 02:11:18;;;;;;;0.00;0.00;;;22.00;76.10;;;;;;5051319;28;20082;-67
2022/07/25 02:13:43;;;;;;;0.00;0.00;;;22.00;76.20;;;;;;5034140;28;20041;-67
2022/07/25 02:16:09;;;;;;;0.00;0.00;;;22.00;76.20;;;;;;5051784;28;20041;-67
2022/07/25 02:18:35;;;;;;;0.00;0.00;;;22.00;76.00;;;;;;5052156;28;20132;-66
2022/07/25 02:21:01;;;;;;;0.00;0.00;;;22.00;76.00;;;;;;5051180;28;20029;-67
2022/07/25 02:23:26;;;;;;;0.00;0.00;;;22.00;75.90;;;;;;5050565;28;20040;-67
2022/07/25 02:25:52;;;;;;;0.00;0.00;;;22.00;75.70;;;;;;5049491;28;20650;-67
2022/07/25 02:28:17;;;;;;;0.00;0.00;;;22.00;75.50;;;;;;5051372;28;20503;-67
2022/07/25 02:30:43;;;;;;;0.00;0.00;;;22.00;75.90;;;;;;5051512;28;20037;-67
2022/07/25 02:33:09;;;;;;;0.00;0.00;;;22.00;75.70;;;;;;5050157;28;20037;-67
2022/07/25 02:35:34;;;;;;;0.00;0.00;;;22.00;76.00;;;;;;5051290;28;20126;-67
2022/07/25 02:38:00;;;;;;;0.00;0.00;;;21.90;75.80;;;;;;5033577;28;20425;-67
2022/07/25 02:40:26;;;;;;;0.00;0.00;;;21.90;75.90;;;;;;5032395;28;20057;-67
2022/07/25 02:42:51;;;;;;;0.00;0.00;;;21.90;76.00;;;;;;5017747;28;20053;-67
2022/07/25 02:45:17;;;;;;;0.00;0.00;;;21.80;75.90;;;;;;5051260;28;20624;-67
2022/07/25 02:47:43;;;;;;;0.00;0.00;;;21.80;76.20;;;;;;5050971;28;20041;-67
2022/07/25 02:50:08;;;;;;;0.00;0.00;;;21.80;76.50;;;;;;5033214;28;20044;-67
2022/07/25 02:52:34;;;;;;;0.00;0.00;;;21.80;76.30;;;;;;5051250;28;20132;-67
2022/07/25 02:55:00;;;;;;;0.00;0.00;;;21.70;76.70;;;;;;5051128;28;20386;-67
2022/07/25 02:57:25;;;;;;;0.00;0.00;;;21.70;76.30;;;;;;5050970;28;20060;-67
2022/07/25 02:59:51;;;;;;;0.00;0.00;;;21.70;76.40;;;;;;5050880;28;20070;-67
2022/07/25 03:02:17;;;;;;;0.00;0.00;;;21.70;76.20;;;;;;5050373;28;20533;-67
2022/07/25 03:04:43;;;;;;;0.00;0.00;;;21.70;76.30;;;;;;5050461;28;20508;-67
2022/07/25 03:07:08;;;;;;;0.00;0.00;;;21.60;76.50;;;;;;5032770;28;20041;-67
2022/07/25 03:09:34;;;;;;;0.00;0.00;;;21.60;77.10;;;;;;5051005;28;20041;-67
2022/07/25 03:11:59;;;;;;;0.00;0.00;;;21.60;76.90;;;;;;5050621;28;20048;-66
2022/07/25 03:14:25;;;;;;;0.00;0.00;;;21.60;76.70;;;;;;5032939;28;20049;-67
2022/07/25 03:16:50;;;;;;;0.00;0.00;;;21.60;76.60;;;;;;5050519;28;20037;-67
2022/07/25 03:19:16;;;;;;;0.00;0.00;;;21.60;76.70;;;;;;5032618;28;20406;-67
2022/07/25 03:21:42;;;;;;;0.00;0.00;;;21.60;76.70;;;;;;5032582;28;20049;-67
2022/07/25 03:24:07;;;;;;;0.00;0.00;;;21.60;76.80;;;;;;5048638;28;20509;-67
2022/07/25 03:26:33;;;;;;;0.00;0.00;;;21.50;76.90;;;;;;5050324;28;20052;-67
2022/07/25 03:28:58;;;;;;;0.00;0.00;;;21.50;77.50;;;;;;5015650;28;20561;-67
2022/07/25 03:31:24;;;;;;;0.00;0.00;;;21.50;77.40;;;;;;5049926;28;20068;-67
2022/07/25 03:33:50;;;;;;;0.32;0.32;;;21.50;77.70;;;;;;5050278;28;20041;-67
2022/07/25 03:36:15;;;;;;;0.10;0.10;;;21.50;77.80;;;;;;5050063;28;20044;-67
2022/07/25 03:38:41;;;;;;;0.00;0.00;;;21.50;77.80;;;;;;5050237;28;20041;-67
2022/07/25 03:41:06;;;;;;;0.00;0.00;;;21.40;77.80;;;;;;5049396;28;20040;-68
2022/07/25 03:43:32;;;;;;;0.00;0.00;;;21.40;77.80;;;;;;5049799;28;20098;-67
2022/07/25 03:45:57;;;;;;;0.00;0.00;;;21.40;77.70;;;;;;5049304;28;20052;-67
2022/07/25 03:48:23;;;;;;;0.00;0.00;;;21.40;77.70;;;;;;5049720;28;20051;-67
2022/07/25 03:50:48;;;;;;;0.00;0.00;;;21.40;77.70;;;;;;5050182;28;20537;-67
2022/07/25 03:53:14;;;;;;;0.10;0.10;;;21.30;77.60;;;;;;5049653;28;20063;-67
2022/07/25 03:55:39;;;;;;;0.00;0.00;;;21.30;77.60;;;;;;5049799;28;20049;-67
2022/07/25 03:58:06;;;;;;;0.00;0.00;;;21.30;77.50;;;;;;5048811;28;20044;-67
2022/07/25 04:00:31;;;;;;;0.00;0.00;;;21.30;77.60;;;;;;5049764;28;20128;-67
2022/07/25 04:02:57;;;;;;;0.00;0.00;;;21.30;77.70;;;;;;5031955;28;20128;-66
2022/07/25 04:05:23;;;;;;;0.00;0.00;;;21.30;77.80;;;;;;5032338;28;20842;-67
2022/07/25 04:07:49;;;;;;;0.00;0.00;;;21.30;78.10;;;;;;5050656;28;20095;-67
2022/07/25 04:10:14;;;;;;;0.00;0.00;;;21.30;78.50;;;;;;5050829;28;20045;-67
2022/07/25 04:12:40;;;;;;;0.00;0.00;;;21.20;78.30;;;;;;5047720;28;20076;-67
2022/07/25 04:15:06;;;;;;;0.00;0.00;;;21.30;78.70;;;;;;5044062;28;20454;-67
2022/07/25 04:17:31;;;;;;;0.00;0.00;;;21.30;78.50;;;;;;5049118;28;20131;-67
2022/07/25 04:19:57;;;;;;;0.00;0.00;;;21.30;78.50;;;;;;5049770;28;20120;-67
2022/07/25 04:22:22;;;;;;;0.00;0.00;;;21.30;78.40;;;;;;5031387;28;20504;-67
2022/07/25 04:24:48;;;;;;;0.00;0.00;;;21.30;78.30;;;;;;5048722;28;20043;-66
2022/07/25 04:27:14;;;;;;;0.00;0.00;;;21.30;78.60;;;;;;5048901;28;20052;-67
2022/07/25 04:29:39;;;;;;;0.00;0.00;;;21.30;78.60;;;;;;5049510;28;20124;-67
2022/07/25 04:32:05;;;;;;;0.00;0.00;;;21.30;78.70;;;;;;5048617;28;20037;-67
2022/07/25 04:34:31;;;;;;;0.00;0.00;;;21.30;78.60;;;;;;5015119;28;20123;-67
2022/07/25 04:36:56;;;;;;;0.00;0.00;;;21.40;78.60;;;;;;5048846;28;20041;-67
2022/07/25 04:39:22;;;;;;;0.00;0.00;;;21.40;78.80;;;;;;5030870;28;20049;-68
2022/07/25 04:41:47;;;;;;;0.00;0.00;;;21.30;78.40;;;;;;5049153;28;20120;-67
2022/07/25 04:44:13;;;;;;;0.00;0.00;;;21.40;78.60;;;;;;5048750;28;20056;-69
2022/07/25 04:46:39;;;;;;;0.00;0.00;;;21.30;78.50;;;;;;5048242;28;20045;-67
2022/07/25 04:49:05;;;;;;;0.00;0.00;;;21.30;78.60;;;;;;5048571;28;20391;-67
2022/07/25 04:51:30;;;;;;;0.00;0.00;;;21.40;78.50;;;;;;5048969;28;20078;-67
2022/07/25 04:53:56;;;;;;;0.00;0.00;;;21.40;78.40;;;;;;5046684;28;20072;-67
2022/07/25 04:56:22;;;;;;;0.00;0.00;;;21.40;78.30;;;;;;5040571;28;20053;-67
2022/07/25 04:58:48;;;;;;;0.00;0.00;;;21.40;78.20;;;;;;5048177;28;20052;-67
2022/07/25 05:01:13;;;;;;;0.00;0.00;;;21.40;78.20;;;;;;5040005;28;20060;-67
2022/07/25 05:03:39;;;;;;;0.00;0.00;;;21.40;78.10;;;;;;5044343;28;20044;-67
2022/07/25 05:06:05;;;;;;;0.00;0.00;;;21.40;78.30;;;;;;5039357;28;20041;-67
2022/07/25 05:08:31;;;;;;;0.00;0.00;;;21.40;78.00;;;;;;5046148;28;20041;-67
2022/07/25 05:10:56;;;;;;;0.00;0.00;;;21.40;77.90;;;;;;5038582;28;20053;-68
2022/07/25 05:13:22;;;;;;;0.00;0.00;;;21.40;77.80;;;;;;5048023;28;20044;-68
2022/07/25 05:15:47;;;;;;;0.00;0.00;;;21.50;78.10;;;;;;5048059;28;20140;-69
2022/07/25 05:18:13;;;;;;;0.00;0.00;;;21.50;78.20;;;;;;5047125;28;20370;-68
2022/07/25 05:20:39;;;;;;;0.00;0.00;;;21.50;78.30;;;;;;5030467;28;20041;-68
2022/07/25 05:23:04;;;;;;;0.00;0.00;;;21.50;78.90;;;;;;5030256;28;20564;-68
2022/07/25 05:25:30;;;;;;;0.00;0.00;;;21.50;79.10;;;;;;5049072;28;20041;-68
2022/07/25 05:27:57;;;;;;;0.00;0.00;;;21.60;79.20;;;;;;5049671;28;20075;-68
2022/07/25 05:30:23;;;;;;;0.00;0.00;;;21.60;79.30;;;;;;5031975;28;20049;-68
2022/07/25 05:32:49;;;;;;;0.00;0.00;;;21.60;79.10;;;;;;5048573;28;20037;-67
2022/07/25 05:35:14;;;;;;;0.00;0.00;;;21.60;78.90;;;;;;5049685;28;20040;-68
2022/07/25 05:37:40;;;;;;;0.00;0.00;;;21.60;79.50;;;;;;5049486;28;20091;-68
2022/07/25 05:40:07;;;;;;;0.00;0.00;;;21.70;78.90;;;;;;5048183;28;20049;-68
2022/07/25 05:42:33;;;;;;;0.00;0.00;;;21.60;78.70;;;;;;5047082;28;20064;-68
2022/07/25 05:44:59;;;;;;;0.20;0.15;;;21.60;79.00;;;;;;5048759;28;20045;-68
2022/07/25 05:47:25;;;;;;;0.00;0.00;;;21.60;79.00;;;;;;5047504;28;20051;-68
2022/07/25 05:49:50;;;;;;;0.00;0.00;;;21.70;79.30;;;;;;5048751;28;20045;-68
2022/07/25 05:52:16;;;;;;;0.00;0.00;;;21.70;79.70;;;;;;5048471;28;20044;-68
2022/07/25 05:54:41;;;;;;;0.00;0.00;;;21.80;79.30;;;;;;5038003;28;20041;-68
2022/07/25 05:57:07;;;;;;;0.00;0.00;;;21.90;79.40;;;;;;5047442;28;20071;-68
2022/07/25 05:59:33;;;;;;;0.00;0.00;;;22.00;79.40;;;;;;5047670;28;20514;-68
2022/07/25 06:02:00;;;;;;;0.00;0.00;;;22.00;79.20;;;;;;5047126;28;20056;-68
2022/07/25 06:04:26;;;;;;;0.00;0.00;;;22.10;79.50;;;;;;5047626;28;20115;-68
2022/07/25 06:06:52;;;;;;;0.00;0.00;;;22.10;79.50;;;;;;5047336;28;20084;-69
2022/07/25 06:09:21;;;;;;;0.00;0.00;;;22.20;79.50;;;;;;5050083;28;20049;-68
2022/07/25 06:11:48;;;;;;;0.00;0.00;;;22.20;79.60;;;;;;5050593;28;20052;-68
2022/07/25 06:14:14;;;;;;;0.00;0.00;;;22.30;79.90;;;;;;5051084;28;20045;-67
2022/07/25 06:16:40;;;;;;;0.00;0.00;;;22.30;80.10;;;;;;5056773;28;20049;-68
2022/07/25 06:19:06;;;;;;;0.00;0.00;;;22.30;79.90;;;;;;5060128;28;20527;-68
2022/07/25 06:21:32;;;;;;;0.55;0.55;;;22.30;79.50;;;;;;5050633;28;20057;-67
2022/07/25 06:23:57;;;;;;;0.00;0.00;;;22.40;79.60;;;;;;5050416;28;20036;-67
2022/07/25 06:26:23;;;;;;;0.00;0.00;;;22.50;78.90;;;;;;5050770;28;20053;-68
2022/07/25 06:28:50;;;;;;;0.00;0.00;;;22.60;78.80;;;;;;5051383;28;20044;-68
2022/07/25 06:31:15;;;;;;;0.00;0.00;;;22.70;77.90;;;;;;5050620;28;20071;-68
2022/07/25 06:33:41;;;;;;;0.00;0.00;;;22.80;77.40;;;;;;5050382;28;20064;-68
2022/07/25 06:36:07;;;;;;;0.35;0.35;;;22.90;76.80;;;;;;5050475;28;20136;-68
2022/07/25 06:38:32;;;;;;;0.08;0.08;;;22.90;76.30;;;;;;5051336;28;20067;-68
2022/07/25 06:40:58;;;;;;;0.08;0.08;;;23.00;76.10;;;;;;5049749;28;20063;-66
2022/07/25 06:43:24;;;;;;;0.00;0.00;;;23.00;75.50;;;;;;5050212;28;20514;-67
2022/07/25 06:45:50;;;;;;;0.00;0.00;;;23.00;74.40;;;;;;5050242;28;20124;-66
2022/07/25 06:48:16;;;;;;;0.00;0.00;;;23.10;73.40;;;;;;5048066;28;20048;-65
2022/07/25 06:50:43;;;;;;;0.03;0.03;;;23.20;73.40;;;;;;5045288;28;20045;-66
2022/07/25 06:53:08;;;;;;;0.90;0.60;;;23.20;72.70;;;;;;5041499;28;20040;-66
2022/07/25 06:55:34;;;;;;;0.05;0.05;;;23.30;70.60;;;;;;5035961;28;20156;-65
2022/07/25 06:58:00;;;;;;;0.20;0.20;;;23.30;69.10;;;;;;5045646;28;20399;-66
2022/07/25 07:00:26;;;;;;;0.00;0.00;;;23.30;69.50;;;;;;5036272;28;20403;-65
2022/07/25 07:02:56;;;;;;;0.00;0.00;;;23.30;69.30;;;;;;5039827;28;20045;-66
2022/07/25 07:05:26;;;;;;;2.20;1.45;;;23.30;69.70;;;;;;5047621;28;20509;-66
2022/07/25 07:07:52;;;;;;;0.00;0.00;;;23.30;69.10;;;;;;5050370;28;20064;-66
2022/07/25 07:10:19;;;;;;;0.00;0.00;;;23.30;69.60;;;;;;5050184;28;20510;-67
2022/07/25 07:12:45;;;;;;;0.00;0.00;;;23.30;68.50;;;;;;5048396;28;20123;-65
2022/07/25 07:15:11;;;;;;;0.00;0.00;;;23.20;68.40;;;;;;5039664;28;20667;-66
2022/07/25 07:17:37;;;;;;;0.00;0.00;;;23.30;66.40;;;;;;5039683;28;20053;-65
2022/07/25 07:20:04;;;;;;;0.00;0.00;;;23.30;66.00;;;;;;5050001;28;20064;-66
2022/07/25 07:22:30;;;;;;;0.10;0.10;;;23.30;66.00;;;;;;5048266;28;20457;-69
2022/07/25 07:24:56;;;;;;;1.02;0.80;;;23.40;64.40;;;;;;5043628;28;20091;-66
2022/07/25 07:27:24;;;;;;;0.05;0.03;;;23.40;63.60;;;;;;5048690;28;20033;-66
2022/07/25 07:29:50;;;;;;;0.00;0.00;;;23.40;61.70;;;;;;5042343;28;20033;-69
2022/07/25 07:32:16;;;;;;;0.00;0.00;;;23.30;61.80;;;;;;5029852;28;20071;-67
2022/07/25 07:34:41;;;;;;;0.15;0.15;;;23.20;63.20;;;;;;5029921;28;20119;-67
2022/07/25 07:37:07;;;;;;;0.15;0.10;;;23.00;64.30;;;;;;5048262;28;20567;-67
2022/07/25 07:39:33;;;;;;;0.00;0.00;;;22.90;64.20;;;;;;5032508;28;20053;-66
2022/07/25 07:41:58;;;;;;;0.00;0.00;;;22.80;64.70;;;;;;5047957;28;20063;-67
2022/07/25 07:44:24;;;;;;;0.00;0.00;;;22.60;66.90;;;;;;5046875;28;20131;-67
2022/07/25 07:46:49;;;;;;;0.00;0.00;;;22.50;68.10;;;;;;5049016;28;20076;-66
2022/07/25 07:49:15;;;;;;;0.00;0.00;;;22.30;69.60;;;;;;5049334;28;20037;-67
2022/07/25 07:51:41;;;;;;;0.00;0.00;;;22.20;69.40;;;;;;5048335;28;20037;-67
2022/07/25 07:56:51;;;;;;;0.00;0.00;;;22.00;70.40;;;;;;5047196;28;20513;-68
2022/07/25 07:59:16;;;;;;;0.13;0.13;;;21.90;70.70;;;;;;5048535;28;20088;-67
2022/07/25 08:01:42;;;;;;;0.00;0.00;;;21.80;71.40;;;;;;5049334;28;20052;-67
2022/07/25 08:04:07;;;;;;;0.00;0.00;;;21.80;71.40;;;;;;5030987;28;20132;-68
2022/07/25 08:06:33;;;;;;;0.00;0.00;;;21.80;71.70;;;;;;5031764;28;20045;-67
2022/07/25 08:08:58;;;;;;;0.00;0.00;;;21.60;72.40;;;;;;5049202;28;20044;-69
2022/07/25 08:11:25;;;;;;;0.00;0.00;;;21.60;72.40;;;;;;5011381;28;20042;-67
2022/07/25 08:13:50;;;;;;;0.00;0.00;;;21.70;72.50;;;;;;5044287;28;20052;-66
2022/07/25 08:16:17;;;;;;;0.00;0.00;;;21.70;72.50;;;;;;5047533;28;20053;-66
2022/07/25 08:18:43;;;;;;;0.00;0.00;;;21.80;72.40;;;;;;5027053;28;20049;-67
2022/07/25 08:21:09;;;;;;;0.00;0.00;;;21.80;73.20;;;;;;5046845;28;20075;-67
2022/07/25 08:23:37;;;;;;;0.00;0.00;;;22.00;72.70;;;;;;5035380;28;20044;-67
2022/07/25 08:26:03;;;;;;;0.00;0.00;;;22.00;73.40;;;;;;5019265;28;20478;-67
2022/07/25 08:28:29;;;;;;;0.00;0.00;;;22.10;73.10;;;;;;5030293;28;20044;-66
2022/07/25 08:30:54;;;;;;;0.00;0.00;;;22.20;72.50;;;;;;5049032;28;20056;-66
2022/07/25 08:33:20;;;;;;;0.00;0.00;;;22.20;71.70;;;;;;5047450;28;20048;-66
2022/07/25 08:35:48;;;;;;;0.00;0.00;;;22.20;71.70;;;;;;5043413;28;20191;-64
2022/07/25 08:38:14;;;;;;;0.00;0.00;;;22.20;71.80;;;;;;5047847;28;20036;-67
2022/07/25 08:40:39;;;;;;;0.32;0.32;;;22.30;70.90;;;;;;5031035;28;20053;-67
2022/07/25 08:43:09;;;;;;;0.00;0.00;;;22.20;71.80;;;;;;5048077;28;20116;-67
2022/07/25 08:45:38;;;;;;;0.10;0.10;;;22.30;71.30;;;;;;5031455;28;20041;-68
2022/07/25 08:48:04;;;;;;;0.00;0.00;;;22.30;70.40;;;;;;5049653;28;20045;-68
2022/07/25 08:50:29;;;;;;;0.00;0.00;;;22.50;69.50;;;;;;5049119;28;20394;-69
2022/07/25 08:52:55;;;;;;;0.00;0.00;;;22.50;69.20;;;;;;5048064;28;20039;-69
2022/07/25 08:55:23;;;;;;;0.00;0.00;;;22.50;69.50;;;;;;5048286;28;20045;-68
2022/07/25 08:57:52;;;;;;;0.00;0.00;;;22.50;69.90;;;;;;5042630;28;20065;-68
2022/07/25 09:00:24;;;;;;;0.00;0.00;;;22.50;70.20;;;;;;5048547;28;20064;-70
2022/07/25 09:02:53;;;;;;;;;;;22.50;71.10;;;;;;5048541;28;20041;-74
2022/07/25 09:05:23;;;;;;;0.00;0.00;;;22.50;71.30;;;;;;5047646;28;20063;-68
2022/07/25 09:07:50;;;;;;;0.00;0.00;;;22.40;71.20;;;;;;5048379;28;20037;-69
2022/07/25 09:10:24;;;;;;;0.10;0.10;;;22.40;71.70;;;;;;5047603;28;20041;-70
2022/07/25 09:13:14;;;;;;;0.63;0.63;;;22.30;72.70;;;;;;5044686;28;20049;-68
2022/07/25 09:15:51;;;;;;;0.15;0.15;;;22.30;73.70;;;;;;5030631;28;20052;-68
2022/07/25 09:18:22;;;;;;;0.00;0.00;;;22.20;73.10;;;;;;5048386;28;20041;-69
2022/07/25 09:20:52;;;;;;;0.00;0.00;;;22.20;75.40;;;;;;5030762;28;20044;-68
2022/07/25 09:23:28;;;;;;;0.00;0.00;;;22.20;74.90;;;;;;5048248;28;20053;-68
2022/07/25 09:26:11;;;;;;;0.00;0.00;;;22.10;75.70;;;;;;5047219;28;20041;-68
2022/07/25 09:28:44;;;;;;;0.00;0.00;;;22.00;76.40;;;;;;5042975;28;20048;-69
2022/07/25 09:31:10;;;;;;;0.00;0.00;;;21.90;76.60;;;;;;5030313;28;20524;-68
2022/07/25 09:34:00;;;;;;;0.00;0.00;;;21.90;76.90;;;;;;5048007;28;20037;-68
2022/07/25 09:36:26;;;;;;;0.00;0.00;;;21.90;77.30;;;;;;5030356;28;20045;-68
2022/07/25 09:39:04;;;;;;;0.00;0.00;;;21.90;78.70;;;;;;5048248;28;20048;-69
2022/07/25 09:41:35;;;;;;;0.00;0.00;;;21.90;78.30;;;;;;5026902;28;20124;-68
2022/07/25 09:44:01;;;;;;;0.00;0.00;;;21.90;78.40;;;;;;5029857;28;20088;-69
2022/07/25 09:46:31;;;;;;;0.00;0.00;;;21.90;78.40;;;;;;5031947;28;20076;-68
2022/07/25 09:48:58;;;;;;;0.00;0.00;;;21.90;78.20;;;;;;5031651;28;20121;-68
2022/07/25 09:51:25;;;;;;;0.00;0.00;;;21.80;78.40;;;;;;5030009;28;20080;-72
2022/07/25 09:53:51;;;;;;;0.10;0.10;;;21.90;79.20;;;;;;5028530;28;20046;-68
2022/07/25 09:56:17;;;;;;;0.00;0.00;;;22.00;79.20;;;;;;5031526;28;20049;-67
2022/07/25 09:58:42;;;;;;;0.80;0.80;;;22.10;78.30;;;;;;5026266;28;20045;-68
2022/07/25 10:01:11;;;;;;;0.00;0.00;;;22.10;78.40;;;;;;5021170;28;20049;-68
2022/07/25 10:03:51;;;;;;;0.00;0.00;;;22.10;77.70;;;;;;5031403;28;20099;-67
2022/07/25 10:06:29;;;;;;;0.00;0.00;;;22.20;77.40;;;;;;5027933;28;20047;-68
2022/07/25 10:08:56;;;;;;;0.80;0.80;;;22.30;77.20;;;;;;5027803;28;20445;-68
2022/07/25 10:11:24;;;;;;;0.00;0.00;;;22.50;76.50;;;;;;5031553;28;20102;-68
2022/07/25 10:13:50;;;;;;;0.00;0.00;;;22.50;76.60;;;;;;5031854;28;20080;-68
2022/07/25 10:16:24;;;;;;;0.00;0.00;;;22.60;75.90;;;;;;5024221;28;20056;-67
2022/07/25 10:18:52;;;;;;;0.40;0.20;;;22.70;75.10;;;;;;5028517;28;20033;-67
2022/07/25 10:21:18;;;;;;;0.00;0.00;;;22.70;75.00;;;;;;5022562;28;20056;-68
2022/07/25 10:23:45;;;;;;;0.00;0.00;;;22.60;74.40;;;;;;5021086;28;20064;-66
2022/07/25 10:26:18;;;;;;;0.00;0.00;;;22.60;74.30;;;;;;5021791;28;20452;-67
2022/07/25 10:28:49;;;;;;;0.00;0.00;;;22.60;74.40;;;;;;5028616;28;20046;-69
2022/07/25 10:31:35;;;;;;;0.38;0.25;;;22.60;74.40;;;;;;5016956;28;20447;-68
2022/07/25 10:34:07;;;;;;;0.00;0.00;;;22.50;74.60;;;;;;5015727;28;20045;-69
2022/07/25 10:36:50;;;;;;;0.00;0.00;;;22.30;74.80;;;;;;5029806;28;20180;-67
2022/07/25 10:39:18;;;;;;;0.00;0.00;;;22.30;74.70;;;;;;5031381;28;20629;-67
2022/07/25 10:41:50;;;;;;;1.30;1.20;;;22.20;74.60;;;;;;5033448;28;20049;-67
2022/07/25 10:44:16;;;;;;;0.08;0.08;;;22.10;74.10;;;;;;5051252;28;20697;-70
2022/07/25 10:46:43;;;;;;;0.00;0.00;;;22.10;73.80;;;;;;5051634;28;20040;-71
2022/07/25 10:49:20;;;;;;;0.00;0.00;;;21.90;73.80;;;;;;5049258;28;20045;-70
2022/07/25 10:51:58;;;;;;;0.00;0.00;;;21.80;73.90;;;;;;5030133;28;20048;-71
2022/07/25 10:54:24;;;;;;;2.92;1.27;;;21.90;73.50;;;;;;5050531;28;20051;-70
2022/07/25 10:56:50;;;;;;;1.20;0.63;;;21.80;73.70;;;;;;5049522;28;20124;-70
2022/07/25 10:59:26;;;;;;;0.00;0.00;;;22.00;73.80;;;;;;5031690;28;20124;-68
2022/07/25 11:01:52;;;;;;;0.10;0.10;;;22.00;72.80;;;;;;5048717;28;20057;-68
2022/07/25 11:04:18;;;;;;;0.00;0.00;;;22.10;73.60;;;;;;5028924;28;20029;-67
2022/07/25 11:06:43;;;;;;;0.13;0.13;;;22.10;74.40;;;;;;5049071;28;20044;-67
2022/07/25 11:09:14;;;;;;;0.00;0.00;;;22.10;73.90;;;;;;5050153;28;20053;-68
2022/07/25 11:11:46;;;;;;;0.00;0.00;;;22.10;73.50;;;;;;5050645;28;20053;-67
2022/07/25 11:14:18;;;;;;;0.00;0.00;;;22.10;72.80;;;;;;5048767;28;20076;-69
2022/07/25 11:16:45;;;;;;;0.20;0.20;;;22.00;72.00;;;;;;5030159;28;20056;-69
2022/07/25 11:19:21;;;;;;;0.00;0.00;;;22.00;71.50;;;;;;5048440;28;20063;-70
2022/07/25 11:21:58;;;;;;;1.02;0.93;;;22.00;71.70;;;;;;5050699;28;20481;-69
2022/07/25 11:24:44;;;;;;;0.00;0.00;;;22.10;72.10;;;;;;5050168;28;20053;-68
2022/07/25 11:27:19;;;;;;;0.00;0.00;;;22.00;72.70;;;;;;5031421;28;20048;-68
2022/07/25 11:29:44;;;;;;;0.00;0.00;;;22.10;72.90;;;;;;5049999;28;20114;-68
2022/07/25 11:32:11;;;;;;;0.00;0.00;;;22.10;72.70;;;;;;5048268;28;20113;-68
2022/07/25 11:34:48;;;;;;;0.52;0.52;;;22.20;72.30;;;;;;5031236;28;20502;-67
2022/07/25 11:37:15;;;;;;;0.10;0.10;;;22.30;72.70;;;;;;5039937;28;20505;-67
2022/07/25 11:39:43;;;;;;;0.00;0.00;;;22.30;72.30;;;;;;5050529;28;20510;-68
2022/07/25 11:42:15;;;;;;;0.00;0.00;;;22.40;71.70;;;;;;5049885;28;20045;-68
2022/07/25 11:44:43;;;;;;;0.00;0.00;;;22.50;70.90;;;;;;5044288;28;20487;-68
2022/07/25 11:47:24;;;;;;;0.30;0.30;;;22.50;71.10;;;;;;5030287;28;20041;-68
2022/07/25 11:49:50;;;;;;;0.00;0.00;;;22.50;70.90;;;;;;5039331;28;20047;-68
2022/07/25 11:52:26;;;;;;;0.00;0.00;;;22.60;69.50;;;;;;5048469;28;20037;-68
2022/07/25 11:55:07;;;;;;;3.15;1.20;;;22.60;69.10;;;;;;5039387;28;20506;-68
2022/07/25 11:57:38;;;;;;;0.10;0.10;;;22.60;69.50;;;;;;5040134;28;20079;-67
2022/07/25 12:00:09;;;;;;;0.00;0.00;;;22.70;68.50;;;;;;5038323;28;20075;-68
2022/07/25 12:02:38;;;;;;;0.00;0.00;;;22.70;68.50;;;;;;5029082;28;20088;-67
2022/07/25 12:05:09;;;;;;;0.00;0.00;;;22.70;68.10;;;;;;5029973;28;20042;-68
2022/07/25 12:07:40;;;;;;;0.10;0.10;;;22.90;68.50;;;;;;5029434;28;20573;-66
2022/07/25 12:10:07;;;;;;;;;;;22.70;66.80;;;;;;5029618;28;20049;-66
2022/07/25 12:12:44;;;;;;;0.00;0.00;;;22.90;67.40;;;;;;5035020;28;19925;-66
2022/07/25 12:15:12;;;;;;;0.70;0.60;;;22.90;67.30;;;;;;5041870;28;20699;-66
2022/07/25 12:17:38;;;;;;;0.00;0.00;;;22.90;67.80;;;;;;5054509;28;20074;-66
2022/07/25 12:20:09;;;;;;;0.00;0.00;;;22.90;66.90;;;;;;5049704;28;20045;-66
2022/07/25 12:22:35;;;;;;;14.02;2.30;;;22.80;67.40;;;;;;5049470;28;20076;-66
2022/07/25 12:25:00;;;;;;;0.00;0.00;;;22.70;67.90;;;;;;5049643;28;20076;-66
2022/07/25 12:27:26;;;;;;;0.98;0.93;;;22.70;68.40;;;;;;5049705;28;20041;-66
2022/07/25 12:29:51;;;;;;;0.00;0.00;;;22.70;68.80;;;;;;5049669;28;20124;-67
2022/07/25 12:32:17;;;;;;;0.30;0.30;;;22.80;68.10;;;;;;5031661;28;20068;-67
2022/07/25 12:34:43;;;;;;;0.00;0.00;;;22.90;67.10;;;;;;5029818;28;20068;-67
2022/07/25 12:37:08;;;;;;;0.20;0.20;;;23.00;67.30;;;;;;5012106;28;20077;-67
2022/07/25 12:39:34;;;;;;;0.00;0.00;;;23.10;68.40;;;;;;5044854;28;20049;-66
2022/07/25 12:41:59;;;;;;;0.20;0.20;;;23.20;68.30;;;;;;5031313;28;20063;-66
2022/07/25 12:44:25;;;;;;;0.00;0.00;;;23.30;68.00;;;;;;5049452;28;20045;-67
2022/07/25 12:46:51;;;;;;;0.00;0.00;;;23.40;65.30;;;;;;5049287;28;20517;-67
2022/07/25 12:49:16;;;;;;;0.13;0.13;;;23.40;64.60;;;;;;5049477;28;20045;-67
2022/07/25 12:51:42;;;;;;;0.73;0.50;;;23.20;63.70;;;;;;5049115;28;20128;-67